sensor_id;sensor_type;location;lat;lon;timestamp;P1;durP1;ratioP1;P2;durP2;ratioP2
44214;SDS011;29884;47.450;19.124;2024-02-26T00:01:27;9.18;;;5.43;;
44214;SDS011;29884;47.450;19.124;2024-02-26T00:03:57;11.93;;;5.78;;
44214;SDS011;29884;47.450;19.124;2024-02-26T00:06:24;9.95;;;5.63;;
44214;SDS011;29884;47.450;19.124;2024-02-26T00:08:50;9.77;;;5.35;;
44214;SDS011;29884;47.450;19.124;2024-02-26T00:11:15;10.02;;;5.22;;
44214;SDS011;29884;47.450;19.124;2024-02-26T00:13:41;9.30;;;5.32;;
44214;SDS011;29884;47.450;19.124;2024-02-26T00:16:06;8.65;;;5.65;;
44214;SDS011;29884;47.450;19.124;2024-02-26T00:18:32;8.55;;;5.13;;
44214;SDS011;29884;47.450;19.124;2024-02-26T00:20:58;9.32;;;4.78;;
44214;SDS011;29884;47.450;19.124;2024-02-26T00:23:25;8.82;;;5.13;;
44214;SDS011;29884;47.450;19.124;2024-02-26T00:25:51;10.05;;;5.60;;
44214;SDS011;29884;47.450;19.124;2024-02-26T00:28:17;10.38;;;5.47;;
44214;SDS011;29884;47.450;19.124;2024-02-26T00:30:44;8.60;;;5.03;;
44214;SDS011;29884;47.450;19.124;2024-02-26T00:33:10;11.13;;;5.03;;
44214;SDS011;29884;47.450;19.124;2024-02-26T00:35:36;8.90;;;5.18;;
44214;SDS011;29884;47.450;19.124;2024-02-26T00:38:02;9.95;;;5.25;;
44214;SDS011;29884;47.450;19.124;2024-02-26T00:40:28;8.50;;;4.93;;
44214;SDS011;29884;47.450;19.124;2024-02-26T00:42:54;9.15;;;5.47;;
44214;SDS011;29884;47.450;19.124;2024-02-26T00:45:19;9.68;;;5.15;;
44214;SDS011;29884;47.450;19.124;2024-02-26T00:47:45;8.77;;;5.35;;
44214;SDS011;29884;47.450;19.124;2024-02-26T00:50:12;10.65;;;5.50;;
44214;SDS011;29884;47.450;19.124;2024-02-26T00:52:38;11.93;;;5.97;;
44214;SDS011;29884;47.450;19.124;2024-02-26T00:55:03;9.80;;;4.95;;
44214;SDS011;29884;47.450;19.124;2024-02-26T00:57:29;9.27;;;5.53;;
44214;SDS011;29884;47.450;19.124;2024-02-26T00:59:55;10.20;;;5.72;;
44214;SDS011;29884;47.450;19.124;2024-02-26T01:02:22;12.50;;;6.10;;
44214;SDS011;29884;47.450;19.124;2024-02-26T01:04:47;8.65;;;5.53;;
44214;SDS011;29884;47.450;19.124;2024-02-26T01:07:13;9.60;;;5.70;;
44214;SDS011;29884;47.450;19.124;2024-02-26T01:09:39;12.10;;;6.05;;
44214;SDS011;29884;47.450;19.124;2024-02-26T01:12:04;9.88;;;5.35;;
44214;SDS011;29884;47.450;19.124;2024-02-26T01:14:30;9.13;;;5.57;;
44214;SDS011;29884;47.450;19.124;2024-02-26T01:16:56;11.75;;;5.20;;
44214;SDS011;29884;47.450;19.124;2024-02-26T01:19:22;11.20;;;5.68;;
44214;SDS011;29884;47.450;19.124;2024-02-26T01:21:47;10.48;;;6.00;;
44214;SDS011;29884;47.450;19.124;2024-02-26T01:24:13;10.55;;;5.88;;
44214;SDS011;29884;47.450;19.124;2024-02-26T01:26:39;9.13;;;5.47;;
44214;SDS011;29884;47.450;19.124;2024-02-26T01:29:04;8.98;;;5.43;;
44214;SDS011;29884;47.450;19.124;2024-02-26T01:31:30;10.48;;;5.80;;
44214;SDS011;29884;47.450;19.124;2024-02-26T01:33:56;10.13;;;5.60;;
44214;SDS011;29884;47.450;19.124;2024-02-26T01:36:21;10.00;;;5.72;;
44214;SDS011;29884;47.450;19.124;2024-02-26T01:38:47;11.38;;;6.13;;
44214;SDS011;29884;47.450;19.124;2024-02-26T01:41:15;9.50;;;5.65;;
44214;SDS011;29884;47.450;19.124;2024-02-26T01:43:41;9.40;;;4.93;;
44214;SDS011;29884;47.450;19.124;2024-02-26T01:46:08;9.88;;;6.03;;
44214;SDS011;29884;47.450;19.124;2024-02-26T01:48:39;10.13;;;5.38;;
44214;SDS011;29884;47.450;19.124;2024-02-26T01:51:06;9.23;;;5.50;;
44214;SDS011;29884;47.450;19.124;2024-02-26T01:53:31;9.68;;;5.70;;
44214;SDS011;29884;47.450;19.124;2024-02-26T01:55:58;9.00;;;5.50;;
44214;SDS011;29884;47.450;19.124;2024-02-26T01:58:23;10.02;;;5.22;;
44214;SDS011;29884;47.450;19.124;2024-02-26T02:00:49;10.25;;;6.15;;
44214;SDS011;29884;47.450;19.124;2024-02-26T02:03:15;10.40;;;5.78;;
44214;SDS011;29884;47.450;19.124;2024-02-26T02:05:40;8.93;;;5.22;;
44214;SDS011;29884;47.450;19.124;2024-02-26T02:08:07;8.30;;;5.63;;
44214;SDS011;29884;47.450;19.124;2024-02-26T02:10:35;9.30;;;5.95;;
44214;SDS011;29884;47.450;19.124;2024-02-26T02:13:01;10.73;;;5.57;;
44214;SDS011;29884;47.450;19.124;2024-02-26T02:15:27;9.63;;;5.05;;
44214;SDS011;29884;47.450;19.124;2024-02-26T02:17:52;10.30;;;5.88;;
44214;SDS011;29884;47.450;19.124;2024-02-26T02:20:18;8.70;;;5.78;;
44214;SDS011;29884;47.450;19.124;2024-02-26T02:22:44;9.75;;;5.80;;
44214;SDS011;29884;47.450;19.124;2024-02-26T02:25:10;10.82;;;5.93;;
44214;SDS011;29884;47.450;19.124;2024-02-26T02:27:36;9.88;;;5.43;;
44214;SDS011;29884;47.450;19.124;2024-02-26T02:30:02;8.15;;;5.00;;
44214;SDS011;29884;47.450;19.124;2024-02-26T02:32:28;8.77;;;5.75;;
44214;SDS011;29884;47.450;19.124;2024-02-26T02:34:55;10.50;;;5.80;;
44214;SDS011;29884;47.450;19.124;2024-02-26T02:37:21;10.23;;;5.72;;
44214;SDS011;29884;47.450;19.124;2024-02-26T02:39:47;9.38;;;5.72;;
44214;SDS011;29884;47.450;19.124;2024-02-26T02:42:12;9.20;;;5.85;;
44214;SDS011;29884;47.450;19.124;2024-02-26T02:44:38;9.70;;;5.75;;
44214;SDS011;29884;47.450;19.124;2024-02-26T02:47:03;10.52;;;5.85;;
44214;SDS011;29884;47.450;19.124;2024-02-26T02:49:29;9.30;;;5.97;;
44214;SDS011;29884;47.450;19.124;2024-02-26T02:51:55;9.07;;;5.40;;
44214;SDS011;29884;47.450;19.124;2024-02-26T02:54:22;8.05;;;5.03;;
44214;SDS011;29884;47.450;19.124;2024-02-26T02:56:48;9.50;;;5.70;;
44214;SDS011;29884;47.450;19.124;2024-02-26T02:59:13;8.43;;;5.28;;
44214;SDS011;29884;47.450;19.124;2024-02-26T03:01:39;9.07;;;5.15;;
44214;SDS011;29884;47.450;19.124;2024-02-26T03:04:05;9.93;;;5.00;;
44214;SDS011;29884;47.450;19.124;2024-02-26T03:06:30;12.10;;;6.65;;
44214;SDS011;29884;47.450;19.124;2024-02-26T03:08:56;14.95;;;6.93;;
44214;SDS011;29884;47.450;19.124;2024-02-26T03:11:21;11.40;;;5.80;;
44214;SDS011;29884;47.450;19.124;2024-02-26T03:13:47;10.07;;;6.13;;
44214;SDS011;29884;47.450;19.124;2024-02-26T03:16:13;10.27;;;6.40;;
44214;SDS011;29884;47.450;19.124;2024-02-26T03:18:39;10.40;;;6.45;;
44214;SDS011;29884;47.450;19.124;2024-02-26T03:21:05;9.00;;;5.43;;
44214;SDS011;29884;47.450;19.124;2024-02-26T03:23:31;8.73;;;5.50;;
44214;SDS011;29884;47.450;19.124;2024-02-26T03:25:57;9.27;;;5.93;;
44214;SDS011;29884;47.450;19.124;2024-02-26T03:28:23;9.18;;;5.32;;
44214;SDS011;29884;47.450;19.124;2024-02-26T03:30:49;10.63;;;5.57;;
44214;SDS011;29884;47.450;19.124;2024-02-26T03:33:14;11.88;;;6.18;;
44214;SDS011;29884;47.450;19.124;2024-02-26T03:35:40;10.10;;;5.93;;
44214;SDS011;29884;47.450;19.124;2024-02-26T03:38:05;8.38;;;5.78;;
44214;SDS011;29884;47.450;19.124;2024-02-26T03:40:31;10.82;;;5.70;;
44214;SDS011;29884;47.450;19.124;2024-02-26T03:42:57;12.73;;;6.15;;
44214;SDS011;29884;47.450;19.124;2024-02-26T03:45:23;10.02;;;6.10;;
44214;SDS011;29884;47.450;19.124;2024-02-26T03:47:50;8.77;;;5.72;;
44214;SDS011;29884;47.450;19.124;2024-02-26T03:50:16;8.70;;;5.45;;
44214;SDS011;29884;47.450;19.124;2024-02-26T03:52:42;7.93;;;5.65;;
44214;SDS011;29884;47.450;19.124;2024-02-26T03:55:07;9.07;;;5.05;;
44214;SDS011;29884;47.450;19.124;2024-02-26T03:57:34;9.35;;;5.72;;
44214;SDS011;29884;47.450;19.124;2024-02-26T04:00:00;9.00;;;5.75;;
44214;SDS011;29884;47.450;19.124;2024-02-26T04:02:26;9.07;;;5.75;;
44214;SDS011;29884;47.450;19.124;2024-02-26T04:04:52;8.13;;;5.10;;
44214;SDS011;29884;47.450;19.124;2024-02-26T04:07:17;8.10;;;5.35;;
44214;SDS011;29884;47.450;19.124;2024-02-26T04:09:43;8.63;;;5.57;;
44214;SDS011;29884;47.450;19.124;2024-02-26T04:12:09;9.13;;;6.03;;
44214;SDS011;29884;47.450;19.124;2024-02-26T04:14:35;9.07;;;5.53;;
44214;SDS011;29884;47.450;19.124;2024-02-26T04:17:01;7.30;;;5.22;;
44214;SDS011;29884;47.450;19.124;2024-02-26T04:19:26;8.40;;;5.18;;
44214;SDS011;29884;47.450;19.124;2024-02-26T04:21:52;8.52;;;5.32;;
44214;SDS011;29884;47.450;19.124;2024-02-26T04:24:17;8.77;;;5.80;;
44214;SDS011;29884;47.450;19.124;2024-02-26T04:26:43;8.95;;;4.80;;
44214;SDS011;29884;47.450;19.124;2024-02-26T04:29:09;9.65;;;5.43;;
44214;SDS011;29884;47.450;19.124;2024-02-26T04:31:34;8.23;;;5.07;;
44214;SDS011;29884;47.450;19.124;2024-02-26T04:34:00;8.20;;;4.88;;
44214;SDS011;29884;47.450;19.124;2024-02-26T04:36:25;10.48;;;5.30;;
44214;SDS011;29884;47.450;19.124;2024-02-26T04:38:51;7.40;;;5.13;;
44214;SDS011;29884;47.450;19.124;2024-02-26T04:41:19;7.78;;;4.68;;
44214;SDS011;29884;47.450;19.124;2024-02-26T04:43:45;7.00;;;4.53;;
44214;SDS011;29884;47.450;19.124;2024-02-26T04:46:10;8.70;;;5.25;;
44214;SDS011;29884;47.450;19.124;2024-02-26T04:48:36;7.65;;;4.68;;
44214;SDS011;29884;47.450;19.124;2024-02-26T04:51:03;8.88;;;4.75;;
44214;SDS011;29884;47.450;19.124;2024-02-26T04:53:29;7.00;;;4.78;;
44214;SDS011;29884;47.450;19.124;2024-02-26T04:55:54;7.63;;;4.70;;
44214;SDS011;29884;47.450;19.124;2024-02-26T04:58:20;6.75;;;4.53;;
44214;SDS011;29884;47.450;19.124;2024-02-26T05:00:45;6.53;;;4.40;;
44214;SDS011;29884;47.450;19.124;2024-02-26T05:03:11;9.40;;;4.78;;
44214;SDS011;29884;47.450;19.124;2024-02-26T05:05:38;10.73;;;6.38;;
44214;SDS011;29884;47.450;19.124;2024-02-26T05:08:05;12.25;;;6.38;;
44214;SDS011;29884;47.450;19.124;2024-02-26T05:10:32;11.30;;;5.90;;
44214;SDS011;29884;47.450;19.124;2024-02-26T05:12:58;11.68;;;6.28;;
44214;SDS011;29884;47.450;19.124;2024-02-26T05:15:24;11.98;;;6.90;;
44214;SDS011;29884;47.450;19.124;2024-02-26T05:17:49;13.27;;;6.57;;
44214;SDS011;29884;47.450;19.124;2024-02-26T05:20:15;13.82;;;7.22;;
44214;SDS011;29884;47.450;19.124;2024-02-26T05:22:40;14.32;;;7.20;;
44214;SDS011;29884;47.450;19.124;2024-02-26T05:25:07;13.13;;;6.90;;
44214;SDS011;29884;47.450;19.124;2024-02-26T05:27:32;16.40;;;6.97;;
44214;SDS011;29884;47.450;19.124;2024-02-26T05:29:58;12.75;;;7.35;;
44214;SDS011;29884;47.450;19.124;2024-02-26T05:32:23;15.05;;;7.85;;
44214;SDS011;29884;47.450;19.124;2024-02-26T05:34:49;13.60;;;7.20;;
44214;SDS011;29884;47.450;19.124;2024-02-26T05:37:15;14.80;;;7.20;;
44214;SDS011;29884;47.450;19.124;2024-02-26T05:39:40;13.88;;;7.28;;
44214;SDS011;29884;47.450;19.124;2024-02-26T05:42:06;15.38;;;8.02;;
44214;SDS011;29884;47.450;19.124;2024-02-26T05:44:33;12.80;;;7.13;;
44214;SDS011;29884;47.450;19.124;2024-02-26T05:46:59;15.18;;;8.05;;
44214;SDS011;29884;47.450;19.124;2024-02-26T05:49:25;15.05;;;7.78;;
44214;SDS011;29884;47.450;19.124;2024-02-26T05:51:50;12.38;;;6.93;;
44214;SDS011;29884;47.450;19.124;2024-02-26T05:54:16;12.82;;;7.30;;
44214;SDS011;29884;47.450;19.124;2024-02-26T05:56:41;12.98;;;7.60;;
44214;SDS011;29884;47.450;19.124;2024-02-26T05:59:07;13.02;;;7.55;;
44214;SDS011;29884;47.450;19.124;2024-02-26T06:01:33;16.27;;;7.93;;
44214;SDS011;29884;47.450;19.124;2024-02-26T06:03:58;11.93;;;7.18;;
44214;SDS011;29884;47.450;19.124;2024-02-26T06:06:24;13.23;;;7.65;;
44214;SDS011;29884;47.450;19.124;2024-02-26T06:08:50;14.07;;;7.93;;
44214;SDS011;29884;47.450;19.124;2024-02-26T06:11:16;14.80;;;7.47;;
44214;SDS011;29884;47.450;19.124;2024-02-26T06:13:41;13.82;;;7.95;;
44214;SDS011;29884;47.450;19.124;2024-02-26T06:16:10;14.02;;;7.93;;
44214;SDS011;29884;47.450;19.124;2024-02-26T06:18:35;14.85;;;7.38;;
44214;SDS011;29884;47.450;19.124;2024-02-26T06:21:01;15.73;;;8.13;;
44214;SDS011;29884;47.450;19.124;2024-02-26T06:23:27;13.15;;;7.00;;
44214;SDS011;29884;47.450;19.124;2024-02-26T06:25:53;13.73;;;7.15;;
44214;SDS011;29884;47.450;19.124;2024-02-26T06:28:18;14.02;;;7.13;;
44214;SDS011;29884;47.450;19.124;2024-02-26T06:30:44;12.65;;;7.30;;
44214;SDS011;29884;47.450;19.124;2024-02-26T06:33:11;11.73;;;6.88;;
44214;SDS011;29884;47.450;19.124;2024-02-26T06:35:37;12.07;;;6.80;;
44214;SDS011;29884;47.450;19.124;2024-02-26T06:38:03;12.68;;;7.28;;
44214;SDS011;29884;47.450;19.124;2024-02-26T06:40:29;12.48;;;6.75;;
44214;SDS011;29884;47.450;19.124;2024-02-26T06:42:54;12.13;;;7.30;;
44214;SDS011;29884;47.450;19.124;2024-02-26T06:45:21;10.93;;;6.25;;
44214;SDS011;29884;47.450;19.124;2024-02-26T06:47:47;12.65;;;6.70;;
44214;SDS011;29884;47.450;19.124;2024-02-26T06:50:12;11.15;;;6.53;;
44214;SDS011;29884;47.450;19.124;2024-02-26T06:52:40;10.98;;;6.32;;
44214;SDS011;29884;47.450;19.124;2024-02-26T06:55:09;15.05;;;7.32;;
44214;SDS011;29884;47.450;19.124;2024-02-26T06:57:34;13.20;;;6.25;;
44214;SDS011;29884;47.450;19.124;2024-02-26T07:00:00;13.43;;;7.13;;
44214;SDS011;29884;47.450;19.124;2024-02-26T07:02:26;10.82;;;6.13;;
44214;SDS011;29884;47.450;19.124;2024-02-26T07:04:52;12.23;;;7.75;;
44214;SDS011;29884;47.450;19.124;2024-02-26T07:07:17;13.20;;;7.60;;
44214;SDS011;29884;47.450;19.124;2024-02-26T07:09:43;15.40;;;7.53;;
44214;SDS011;29884;47.450;19.124;2024-02-26T07:12:09;13.70;;;7.25;;
44214;SDS011;29884;47.450;19.124;2024-02-26T07:14:35;12.48;;;7.38;;
44214;SDS011;29884;47.450;19.124;2024-02-26T07:17:02;15.15;;;7.70;;
44214;SDS011;29884;47.450;19.124;2024-02-26T07:19:28;14.45;;;7.72;;
44214;SDS011;29884;47.450;19.124;2024-02-26T07:21:53;12.02;;;7.35;;
44214;SDS011;29884;47.450;19.124;2024-02-26T07:24:19;12.70;;;7.40;;
44214;SDS011;29884;47.450;19.124;2024-02-26T07:26:45;14.07;;;8.10;;
44214;SDS011;29884;47.450;19.124;2024-02-26T07:29:10;16.92;;;8.02;;
44214;SDS011;29884;47.450;19.124;2024-02-26T07:31:36;14.77;;;7.90;;
44214;SDS011;29884;47.450;19.124;2024-02-26T07:34:01;14.98;;;8.35;;
44214;SDS011;29884;47.450;19.124;2024-02-26T07:36:27;14.90;;;8.13;;
44214;SDS011;29884;47.450;19.124;2024-02-26T07:38:52;14.48;;;7.85;;
44214;SDS011;29884;47.450;19.124;2024-02-26T07:41:19;15.90;;;8.23;;
44214;SDS011;29884;47.450;19.124;2024-02-26T07:43:45;14.00;;;7.80;;
44214;SDS011;29884;47.450;19.124;2024-02-26T07:46:11;16.85;;;8.45;;
44214;SDS011;29884;47.450;19.124;2024-02-26T07:48:37;14.95;;;7.65;;
44214;SDS011;29884;47.450;19.124;2024-02-26T07:51:03;16.58;;;8.85;;
44214;SDS011;29884;47.450;19.124;2024-02-26T07:53:29;13.02;;;8.05;;
44214;SDS011;29884;47.450;19.124;2024-02-26T07:55:55;14.32;;;8.82;;
44214;SDS011;29884;47.450;19.124;2024-02-26T07:58:21;16.27;;;8.60;;
44214;SDS011;29884;47.450;19.124;2024-02-26T08:00:48;17.73;;;9.40;;
44214;SDS011;29884;47.450;19.124;2024-02-26T08:03:14;14.20;;;9.02;;
44214;SDS011;29884;47.450;19.124;2024-02-26T08:05:40;15.65;;;9.15;;
44214;SDS011;29884;47.450;19.124;2024-02-26T08:08:08;16.10;;;9.57;;
44214;SDS011;29884;47.450;19.124;2024-02-26T08:10:34;17.30;;;10.70;;
44214;SDS011;29884;47.450;19.124;2024-02-26T08:12:59;20.38;;;12.10;;
44214;SDS011;29884;47.450;19.124;2024-02-26T08:15:30;19.80;;;11.52;;
44214;SDS011;29884;47.450;19.124;2024-02-26T08:18:03;17.08;;;11.10;;
44214;SDS011;29884;47.450;19.124;2024-02-26T08:20:29;18.38;;;11.95;;
44214;SDS011;29884;47.450;19.124;2024-02-26T08:22:55;21.13;;;11.48;;
44214;SDS011;29884;47.450;19.124;2024-02-26T08:25:21;20.35;;;12.18;;
44214;SDS011;29884;47.450;19.124;2024-02-26T08:27:47;20.42;;;12.30;;
44214;SDS011;29884;47.450;19.124;2024-02-26T08:30:16;18.42;;;12.35;;
44214;SDS011;29884;47.450;19.124;2024-02-26T08:32:45;19.52;;;12.68;;
44214;SDS011;29884;47.450;19.124;2024-02-26T08:35:12;19.35;;;12.68;;
44214;SDS011;29884;47.450;19.124;2024-02-26T08:37:38;19.33;;;11.95;;
44214;SDS011;29884;47.450;19.124;2024-02-26T08:40:04;19.65;;;12.52;;
44214;SDS011;29884;47.450;19.124;2024-02-26T08:42:30;18.95;;;12.65;;
44214;SDS011;29884;47.450;19.124;2024-02-26T08:44:56;24.55;;;13.77;;
44214;SDS011;29884;47.450;19.124;2024-02-26T08:47:23;19.13;;;13.20;;
44214;SDS011;29884;47.450;19.124;2024-02-26T08:49:49;16.77;;;11.65;;
44214;SDS011;29884;47.450;19.124;2024-02-26T08:52:15;15.95;;;11.50;;
44214;SDS011;29884;47.450;19.124;2024-02-26T08:54:40;23.20;;;13.82;;
44214;SDS011;29884;47.450;19.124;2024-02-26T08:57:06;18.08;;;12.27;;
44214;SDS011;29884;47.450;19.124;2024-02-26T08:59:31;16.42;;;11.35;;
44214;SDS011;29884;47.450;19.124;2024-02-26T09:01:57;16.90;;;11.13;;
44214;SDS011;29884;47.450;19.124;2024-02-26T09:04:22;18.00;;;11.98;;
44214;SDS011;29884;47.450;19.124;2024-02-26T09:06:48;20.33;;;12.23;;
44214;SDS011;29884;47.450;19.124;2024-02-26T09:09:14;17.05;;;13.23;;
44214;SDS011;29884;47.450;19.124;2024-02-26T09:11:39;19.77;;;12.27;;
44214;SDS011;29884;47.450;19.124;2024-02-26T09:14:05;17.90;;;12.32;;
44214;SDS011;29884;47.450;19.124;2024-02-26T09:16:31;20.60;;;13.35;;
44214;SDS011;29884;47.450;19.124;2024-02-26T09:18:57;20.33;;;12.52;;
44214;SDS011;29884;47.450;19.124;2024-02-26T09:21:22;20.65;;;12.20;;
44214;SDS011;29884;47.450;19.124;2024-02-26T09:23:49;17.33;;;11.85;;
44214;SDS011;29884;47.450;19.124;2024-02-26T09:26:15;20.48;;;12.82;;
44214;SDS011;29884;47.450;19.124;2024-02-26T09:28:41;21.10;;;13.65;;
44214;SDS011;29884;47.450;19.124;2024-02-26T09:31:07;18.58;;;13.50;;
44214;SDS011;29884;47.450;19.124;2024-02-26T09:33:33;17.55;;;12.55;;
44214;SDS011;29884;47.450;19.124;2024-02-26T09:35:58;18.77;;;13.23;;
44214;SDS011;29884;47.450;19.124;2024-02-26T09:38:25;18.92;;;12.25;;
44214;SDS011;29884;47.450;19.124;2024-02-26T09:40:51;20.45;;;13.30;;
44214;SDS011;29884;47.450;19.124;2024-02-26T09:43:17;17.30;;;12.40;;
44214;SDS011;29884;47.450;19.124;2024-02-26T09:45:49;18.60;;;12.18;;
44214;SDS011;29884;47.450;19.124;2024-02-26T09:48:16;18.25;;;12.55;;
44214;SDS011;29884;47.450;19.124;2024-02-26T09:50:43;17.65;;;12.20;;
44214;SDS011;29884;47.450;19.124;2024-02-26T09:53:09;16.73;;;11.82;;
44214;SDS011;29884;47.450;19.124;2024-02-26T09:55:37;16.70;;;11.38;;
44214;SDS011;29884;47.450;19.124;2024-02-26T09:58:03;16.77;;;11.48;;
44214;SDS011;29884;47.450;19.124;2024-02-26T10:00:30;17.40;;;12.20;;
44214;SDS011;29884;47.450;19.124;2024-02-26T10:03:02;18.75;;;11.68;;
44214;SDS011;29884;47.450;19.124;2024-02-26T10:05:29;19.25;;;12.40;;
44214;SDS011;29884;47.450;19.124;2024-02-26T10:07:57;17.13;;;11.95;;
44214;SDS011;29884;47.450;19.124;2024-02-26T10:10:25;16.98;;;12.10;;
44214;SDS011;29884;47.450;19.124;2024-02-26T10:12:52;15.57;;;11.07;;
44214;SDS011;29884;47.450;19.124;2024-02-26T10:15:18;15.82;;;11.35;;
44214;SDS011;29884;47.450;19.124;2024-02-26T10:17:43;20.77;;;10.98;;
44214;SDS011;29884;47.450;19.124;2024-02-26T10:20:12;15.90;;;10.95;;
44214;SDS011;29884;47.450;19.124;2024-02-26T10:22:40;18.33;;;11.55;;
44214;SDS011;29884;47.450;19.124;2024-02-26T10:25:07;14.02;;;10.50;;
44214;SDS011;29884;47.450;19.124;2024-02-26T10:27:33;14.32;;;10.15;;
44214;SDS011;29884;47.450;19.124;2024-02-26T10:30:19;13.30;;;9.73;;
44214;SDS011;29884;47.450;19.124;2024-02-26T10:32:46;15.98;;;10.82;;
44214;SDS011;29884;47.450;19.124;2024-02-26T10:35:13;14.32;;;10.57;;
44214;SDS011;29884;47.450;19.124;2024-02-26T10:37:42;17.58;;;11.43;;
44214;SDS011;29884;47.450;19.124;2024-02-26T10:40:11;15.32;;;10.80;;
44214;SDS011;29884;47.450;19.124;2024-02-26T10:42:37;15.25;;;10.50;;
44214;SDS011;29884;47.450;19.124;2024-02-26T10:45:04;14.48;;;10.70;;
44214;SDS011;29884;47.450;19.124;2024-02-26T10:47:31;14.00;;;9.18;;
44214;SDS011;29884;47.450;19.124;2024-02-26T10:49:58;14.25;;;9.68;;
44214;SDS011;29884;47.450;19.124;2024-02-26T10:52:24;13.95;;;8.65;;
44214;SDS011;29884;47.450;19.124;2024-02-26T10:54:53;10.65;;;8.55;;
44214;SDS011;29884;47.450;19.124;2024-02-26T10:57:21;16.73;;;9.27;;
44214;SDS011;29884;47.450;19.124;2024-02-26T10:59:49;11.60;;;8.35;;
44214;SDS011;29884;47.450;19.124;2024-02-26T11:02:16;13.20;;;8.23;;
44214;SDS011;29884;47.450;19.124;2024-02-26T11:04:42;9.38;;;6.57;;
44214;SDS011;29884;47.450;19.124;2024-02-26T11:07:09;8.07;;;5.78;;
44214;SDS011;29884;47.450;19.124;2024-02-26T11:09:35;8.15;;;5.40;;
44214;SDS011;29884;47.450;19.124;2024-02-26T11:12:08;6.80;;;5.38;;
44214;SDS011;29884;47.450;19.124;2024-02-26T11:14:36;9.68;;;6.80;;
44214;SDS011;29884;47.450;19.124;2024-02-26T11:17:03;7.93;;;6.30;;
44214;SDS011;29884;47.450;19.124;2024-02-26T11:19:29;10.15;;;7.22;;
44214;SDS011;29884;47.450;19.124;2024-02-26T11:21:56;11.10;;;6.78;;
44214;SDS011;29884;47.450;19.124;2024-02-26T11:24:23;13.95;;;7.65;;
44214;SDS011;29884;47.450;19.124;2024-02-26T11:26:50;10.45;;;7.70;;
44214;SDS011;29884;47.450;19.124;2024-02-26T11:29:24;9.18;;;7.22;;
44214;SDS011;29884;47.450;19.124;2024-02-26T11:31:52;8.73;;;6.47;;
44214;SDS011;29884;47.450;19.124;2024-02-26T11:34:18;6.68;;;5.22;;
44214;SDS011;29884;47.450;19.124;2024-02-26T11:36:45;8.38;;;5.35;;
44214;SDS011;29884;47.450;19.124;2024-02-26T11:39:11;6.95;;;4.97;;
44214;SDS011;29884;47.450;19.124;2024-02-26T11:41:38;7.10;;;5.55;;
44214;SDS011;29884;47.450;19.124;2024-02-26T11:44:04;7.72;;;5.68;;
44214;SDS011;29884;47.450;19.124;2024-02-26T11:46:41;9.13;;;4.30;;
44214;SDS011;29884;47.450;19.124;2024-02-26T11:52:09;4.75;;;3.35;;
44214;SDS011;29884;47.450;19.124;2024-02-26T11:57:25;4.70;;;3.28;;
44214;SDS011;29884;47.450;19.124;2024-02-26T11:59:54;5.10;;;3.00;;
44214;SDS011;29884;47.450;19.124;2024-02-26T12:02:44;4.07;;;3.65;;
44214;SDS011;29884;47.450;19.124;2024-02-26T12:05:17;5.15;;;4.15;;
44214;SDS011;29884;47.450;19.124;2024-02-26T12:13:00;4.57;;;3.00;;
44214;SDS011;29884;47.450;19.124;2024-02-26T12:15:45;4.22;;;2.75;;
44214;SDS011;29884;47.450;19.124;2024-02-26T12:18:23;5.72;;;3.20;;
44214;SDS011;29884;47.450;19.124;2024-02-26T12:20:59;4.32;;;2.67;;
44214;SDS011;29884;47.450;19.124;2024-02-26T12:23:27;3.60;;;2.78;;
44214;SDS011;29884;47.450;19.124;2024-02-26T12:25:53;8.20;;;3.65;;
44214;SDS011;29884;47.450;19.124;2024-02-26T12:28:23;4.68;;;3.47;;
44214;SDS011;29884;47.450;19.124;2024-02-26T12:30:54;5.25;;;3.60;;
44214;SDS011;29884;47.450;19.124;2024-02-26T12:33:19;6.32;;;3.38;;
44214;SDS011;29884;47.450;19.124;2024-02-26T12:35:45;4.03;;;3.13;;
44214;SDS011;29884;47.450;19.124;2024-02-26T12:38:14;4.95;;;3.33;;
44214;SDS011;29884;47.450;19.124;2024-02-26T12:40:40;10.02;;;3.63;;
44214;SDS011;29884;47.450;19.124;2024-02-26T12:43:05;6.10;;;3.13;;
44214;SDS011;29884;47.450;19.124;2024-02-26T12:45:38;4.15;;;2.90;;
44214;SDS011;29884;47.450;19.124;2024-02-26T12:48:05;4.55;;;2.95;;
44214;SDS011;29884;47.450;19.124;2024-02-26T12:50:31;5.35;;;2.80;;
44214;SDS011;29884;47.450;19.124;2024-02-26T12:52:57;4.25;;;2.70;;
44214;SDS011;29884;47.450;19.124;2024-02-26T12:55:23;3.22;;;2.63;;
44214;SDS011;29884;47.450;19.124;2024-02-26T12:57:50;3.17;;;2.20;;
44214;SDS011;29884;47.450;19.124;2024-02-26T13:00:18;4.07;;;2.03;;
44214;SDS011;29884;47.450;19.124;2024-02-26T13:02:47;4.00;;;1.70;;
44214;SDS011;29884;47.450;19.124;2024-02-26T13:05:14;2.45;;;1.90;;
44214;SDS011;29884;47.450;19.124;2024-02-26T13:07:44;3.72;;;2.00;;
44214;SDS011;29884;47.450;19.124;2024-02-26T13:10:12;3.15;;;1.23;;
44214;SDS011;29884;47.450;19.124;2024-02-26T13:12:45;1.95;;;1.10;;
44214;SDS011;29884;47.450;19.124;2024-02-26T13:15:15;2.72;;;1.20;;
44214;SDS011;29884;47.450;19.124;2024-02-26T13:17:42;3.42;;;1.30;;
44214;SDS011;29884;47.450;19.124;2024-02-26T13:20:08;1.75;;;1.00;;
44214;SDS011;29884;47.450;19.124;2024-02-26T13:22:38;1.88;;;0.90;;
44214;SDS011;29884;47.450;19.124;2024-02-26T13:25:03;1.63;;;0.80;;
44214;SDS011;29884;47.450;19.124;2024-02-26T13:27:31;3.08;;;0.77;;
44214;SDS011;29884;47.450;19.124;2024-02-26T13:32:36;2.85;;;1.10;;
44214;SDS011;29884;47.450;19.124;2024-02-26T13:37:32;3.70;;;1.40;;
44214;SDS011;29884;47.450;19.124;2024-02-26T13:39:58;2.65;;;1.60;;
44214;SDS011;29884;47.450;19.124;2024-02-26T13:42:24;2.75;;;2.10;;
44214;SDS011;29884;47.450;19.124;2024-02-26T13:44:49;4.05;;;1.80;;
44214;SDS011;29884;47.450;19.124;2024-02-26T13:47:15;2.63;;;1.92;;
44214;SDS011;29884;47.450;19.124;2024-02-26T13:49:41;3.63;;;2.00;;
44214;SDS011;29884;47.450;19.124;2024-02-26T13:52:06;5.00;;;1.98;;
44214;SDS011;29884;47.450;19.124;2024-02-26T13:54:32;3.22;;;1.83;;
44214;SDS011;29884;47.450;19.124;2024-02-26T13:56:58;5.30;;;2.75;;
44214;SDS011;29884;47.450;19.124;2024-02-26T13:59:24;3.22;;;2.85;;
44214;SDS011;29884;47.450;19.124;2024-02-26T14:01:49;6.55;;;2.60;;
44214;SDS011;29884;47.450;19.124;2024-02-26T14:04:15;3.13;;;2.20;;
44214;SDS011;29884;47.450;19.124;2024-02-26T14:06:41;3.35;;;2.30;;
44214;SDS011;29884;47.450;19.124;2024-02-26T14:09:07;4.25;;;2.35;;
44214;SDS011;29884;47.450;19.124;2024-02-26T14:11:34;3.55;;;2.65;;
44214;SDS011;29884;47.450;19.124;2024-02-26T14:14:00;4.93;;;3.13;;
44214;SDS011;29884;47.450;19.124;2024-02-26T14:16:26;3.78;;;2.75;;
44214;SDS011;29884;47.450;19.124;2024-02-26T14:18:52;4.28;;;2.22;;
44214;SDS011;29884;47.450;19.124;2024-02-26T14:21:17;4.55;;;2.60;;
44214;SDS011;29884;47.450;19.124;2024-02-26T14:23:43;5.60;;;2.03;;
44214;SDS011;29884;47.450;19.124;2024-02-26T14:26:09;3.67;;;2.50;;
44214;SDS011;29884;47.450;19.124;2024-02-26T14:28:35;3.92;;;2.13;;
44214;SDS011;29884;47.450;19.124;2024-02-26T14:31:01;4.20;;;2.50;;
44214;SDS011;29884;47.450;19.124;2024-02-26T14:33:26;3.58;;;2.65;;
44214;SDS011;29884;47.450;19.124;2024-02-26T14:35:52;3.15;;;2.05;;
44214;SDS011;29884;47.450;19.124;2024-02-26T14:38:17;5.80;;;3.00;;